createdAt,value
2023-02-09T00:01:43.815Z,100.00
2023-02-09T00:04:11.366Z,100.00
2023-02-09T00:06:38.941Z,100.00
2023-02-09T00:09:06.506Z,100.00
2023-02-09T00:11:52.705Z,100.00
2023-02-09T00:14:22.095Z,100.00
2023-02-09T00:16:51.278Z,100.00
2023-02-09T00:19:19.569Z,100.00
2023-02-09T00:21:47.902Z,100.00
2023-02-09T00:24:16.014Z,100.00
2023-02-09T00:26:44.483Z,100.00
2023-02-09T00:29:13.475Z,100.00
2023-02-09T00:31:42.402Z,100.00
2023-02-09T00:34:10.955Z,100.00
2023-02-09T00:36:38.625Z,100.00
2023-02-09T00:39:06.561Z,100.00
2023-02-09T00:41:52.591Z,100.00
2023-02-09T00:44:20.297Z,100.00
2023-02-09T00:46:49.515Z,100.00
2023-02-09T00:49:17.073Z,100.00
2023-02-09T00:51:44.950Z,100.00
2023-02-09T00:54:13.453Z,100.00
2023-02-09T00:56:41.697Z,100.00
2023-02-09T00:59:09.359Z,100.00
2023-02-09T01:01:37.181Z,100.00
2023-02-09T01:04:05.393Z,100.00
2023-02-09T01:06:33.922Z,100.00
2023-02-09T01:09:02.848Z,100.00
2023-02-09T01:11:30.753Z,100.00
2023-02-09T01:14:00.516Z,100.00
2023-02-09T01:16:31.985Z,100.00
2023-02-09T01:19:01.474Z,100.00
2023-02-09T01:21:31.048Z,100.00
2023-02-09T01:23:59.232Z,100.00
2023-02-09T01:26:27.101Z,100.00
2023-02-09T01:28:55.041Z,100.00
2023-02-09T01:31:32.416Z,100.00
2023-02-09T01:34:02.925Z,100.00
2023-02-09T01:36:32.082Z,100.00
2023-02-09T01:39:01.537Z,100.00
2023-02-09T01:41:29.440Z,100.00
2023-02-09T01:44:01.612Z,100.00
2023-02-09T01:46:33.060Z,100.00
2023-02-09T01:49:19.311Z,100.00
2023-02-09T01:52:25.925Z,100.00
2023-02-09T01:55:06.728Z,100.00
2023-02-09T01:57:45.909Z,100.00
2023-02-09T02:00:19.653Z,100.00
2023-02-09T02:02:52.902Z,100.00
2023-02-09T02:05:21.948Z,100.00
2023-02-09T02:08:01.097Z,100.00
2023-02-09T02:10:29.377Z,100.00
2023-02-09T02:12:57.500Z,100.00
2023-02-09T02:15:29.960Z,100.00
2023-02-09T02:18:12.714Z,100.00
2023-02-09T02:21:08.242Z,100.00
2023-02-09T02:23:44.869Z,100.00
2023-02-09T02:26:47.662Z,100.00
2023-02-09T02:29:37.141Z,100.00
2023-02-09T02:32:11.043Z,100.00
2023-02-09T02:34:50.595Z,100.00
2023-02-09T02:37:44.470Z,100.00
2023-02-09T02:40:27.500Z,100.00
2023-02-09T02:43:02.963Z,100.00
2023-02-09T02:45:40.954Z,100.00
2023-02-09T02:48:18.951Z,100.00
2023-02-09T02:51:19.787Z,100.00
2023-02-09T02:53:54.813Z,100.00
2023-02-09T02:56:29.218Z,100.00
2023-02-09T02:59:00.098Z,100.00
2023-02-09T03:01:34.461Z,100.00
2023-02-09T03:04:05.349Z,100.00
2023-02-09T03:06:35.626Z,100.00
2023-02-09T03:09:03.851Z,100.00
2023-02-09T03:11:42.806Z,100.00
2023-02-09T03:14:13.567Z,100.00
2023-02-09T03:16:52.433Z,100.00
2023-02-09T03:19:25.870Z,100.00
2023-02-09T03:22:06.629Z,100.00
2023-02-09T03:24:46.941Z,100.00
2023-02-09T03:27:22.327Z,100.00
2023-02-09T03:29:55.098Z,100.00
2023-02-09T03:32:23.956Z,100.00
2023-02-09T03:34:53.009Z,100.00
2023-02-09T03:37:20.785Z,100.00
2023-02-09T03:39:48.359Z,100.00
2023-02-09T03:42:16.211Z,100.00
2023-02-09T03:44:43.804Z,100.00
2023-02-09T03:47:11.430Z,100.00
2023-02-09T03:49:41.003Z,100.00
2023-02-09T03:52:11.155Z,100.00
2023-02-09T03:54:39.100Z,100.00
2023-02-09T03:57:08.093Z,100.00
2023-02-09T03:59:38.424Z,100.00
2023-02-09T04:02:08.477Z,100.00
2023-02-09T04:04:36.656Z,100.00
2023-02-09T04:07:04.367Z,100.00
2023-02-09T04:09:31.946Z,100.00
2023-02-09T04:11:59.536Z,100.00
2023-02-09T04:14:27.118Z,100.00
2023-02-09T04:16:54.592Z,100.00
2023-02-09T04:19:22.243Z,100.00
2023-02-09T04:21:49.783Z,100.00
2023-02-09T04:24:26.852Z,100.00
2023-02-09T04:26:54.499Z,100.00
2023-02-09T04:29:22.205Z,100.00
2023-02-09T04:31:49.851Z,100.00
2023-02-09T04:34:17.643Z,100.00
2023-02-09T04:36:45.160Z,100.00
2023-02-09T04:39:12.751Z,100.00
2023-02-09T04:41:40.310Z,100.00
2023-02-09T04:44:08.011Z,100.00
2023-02-09T04:46:35.583Z,100.00
2023-02-09T04:49:03.425Z,100.00
2023-02-09T04:51:31.062Z,100.00
2023-02-09T04:53:58.579Z,100.00
2023-02-09T04:56:26.337Z,100.00
2023-02-09T04:59:12.093Z,100.00
2023-02-09T05:01:39.710Z,100.00
2023-02-09T05:04:07.281Z,100.00
2023-02-09T05:06:34.827Z,100.00
2023-02-09T05:09:02.449Z,100.00
2023-02-09T05:11:30.015Z,100.00
2023-02-09T05:13:57.710Z,100.00
2023-02-09T05:16:25.366Z,100.00
2023-02-09T05:18:53.108Z,100.00
2023-02-09T05:21:20.943Z,100.00
2023-02-09T05:23:48.510Z,100.00
2023-02-09T05:26:16.105Z,100.00
2023-02-09T05:28:43.757Z,100.00
2023-02-09T05:31:11.354Z,100.00
2023-02-09T05:33:38.921Z,100.00
2023-02-09T05:36:09.917Z,100.00
2023-02-09T05:38:37.599Z,100.00
2023-02-09T05:41:33.624Z,100.00
2023-02-09T05:44:01.158Z,100.00
2023-02-09T05:46:28.865Z,100.00
2023-02-09T05:48:56.426Z,100.00
2023-02-09T05:51:24.085Z,100.00
2023-02-09T05:53:53.880Z,100.00
2023-02-09T05:56:22.877Z,100.00
2023-02-09T05:58:50.449Z,100.00
2023-02-09T06:01:18.091Z,100.00
2023-02-09T06:03:45.731Z,100.00
2023-02-09T06:06:13.422Z,100.00
2023-02-09T06:08:41.215Z,100.00
2023-02-09T06:11:09.046Z,100.00
2023-02-09T06:13:36.623Z,100.00
2023-02-09T06:16:04.362Z,100.00
2023-02-09T06:18:31.959Z,100.00
2023-02-09T06:20:59.489Z,100.00
2023-02-09T06:23:27.009Z,100.00
2023-02-09T06:25:54.634Z,100.00
2023-02-09T06:28:22.250Z,100.00
2023-02-09T06:30:54.277Z,100.00
2023-02-09T06:33:21.896Z,100.00
2023-02-09T06:35:51.445Z,100.00
2023-02-09T06:38:20.488Z,100.00
2023-02-09T06:40:48.302Z,100.00
2023-02-09T06:43:16.678Z,100.00
2023-02-09T06:45:44.635Z,100.00
2023-02-09T06:48:12.313Z,100.00
2023-02-09T06:50:40.501Z,100.00
2023-02-09T06:53:08.389Z,100.00
2023-02-09T06:55:36.113Z,100.00
2023-02-09T06:58:04.584Z,100.00
2023-02-09T07:00:32.573Z,100.00
2023-02-09T07:03:00.700Z,100.00
2023-02-09T07:05:28.426Z,100.00
2023-02-09T07:07:57.064Z,100.00
2023-02-09T07:10:24.730Z,100.00
2023-02-09T07:12:52.434Z,100.00
2023-02-09T07:15:20.010Z,100.00
2023-02-09T07:17:47.676Z,100.00
2023-02-09T07:20:15.334Z,100.00
2023-02-09T07:22:42.949Z,100.00
2023-02-09T07:25:10.709Z,100.00
2023-02-09T07:27:38.395Z,100.00
2023-02-09T07:30:06.709Z,100.00
2023-02-09T07:32:34.426Z,100.00
2023-02-09T07:35:02.003Z,100.00
2023-02-09T07:37:31.103Z,100.00
2023-02-09T07:39:58.882Z,100.00
2023-02-09T07:42:26.589Z,100.00
2023-02-09T07:45:01.042Z,100.00
2023-02-09T07:47:30.796Z,83.53
2023-02-09T07:49:58.501Z,66.33
2023-02-09T07:52:26.158Z,49.65
2023-02-09T07:54:53.783Z,51.71
2023-02-09T07:57:21.374Z,44.68
2023-02-09T07:59:49.039Z,44.65
2023-02-09T08:02:38.166Z,43.98
2023-02-09T08:05:11.989Z,38.38
2023-02-09T08:07:41.400Z,40.47
2023-02-09T08:10:09.471Z,36.63
2023-02-09T08:12:55.645Z,36.82
2023-02-09T08:15:24.083Z,34.69
2023-02-09T08:17:54.166Z,35.13
2023-02-09T08:20:25.688Z,37.22
2023-02-09T08:22:56.443Z,36.20
2023-02-09T08:25:25.730Z,39.29
2023-02-09T08:27:54.556Z,35.80
2023-02-09T08:30:22.415Z,37.46
2023-02-09T08:32:50.093Z,36.46
2023-02-09T08:35:17.816Z,37.36
2023-02-09T08:37:45.476Z,37.59
2023-02-09T08:40:15.197Z,38.94
2023-02-09T08:42:42.795Z,38.79
2023-02-09T08:45:10.905Z,39.54
2023-02-09T08:47:39.222Z,37.65
2023-02-09T08:50:07.180Z,39.41
2023-02-09T08:52:34.810Z,40.56
2023-02-09T08:55:02.555Z,39.91
2023-02-09T08:57:43.148Z,42.90
2023-02-09T09:00:13.163Z,41.08
2023-02-09T09:02:40.771Z,44.65
2023-02-09T09:05:08.690Z,44.68
2023-02-09T09:07:36.435Z,46.29
2023-02-09T09:10:04.571Z,48.15
2023-02-09T09:12:32.464Z,51.22
2023-02-09T09:15:00.211Z,52.34
2023-02-09T09:17:28.022Z,53.32
2023-02-09T09:19:56.718Z,55.34
2023-02-09T09:22:24.713Z,51.83
2023-02-09T09:24:54.669Z,52.22
2023-02-09T09:27:22.648Z,55.33
2023-02-09T09:29:50.246Z,57.47
2023-02-09T09:32:18.171Z,55.42
2023-02-09T09:34:45.860Z,56.57
2023-02-09T09:37:13.549Z,60.16
2023-02-09T09:39:41.170Z,60.86
2023-02-09T09:42:23.813Z,58.33
2023-02-09T09:44:52.279Z,60.97
2023-02-09T09:47:30.855Z,60.47
2023-02-09T09:49:58.523Z,57.50
2023-02-09T09:52:40.038Z,56.11
2023-02-09T09:55:09.858Z,55.21
2023-02-09T09:57:45.801Z,57.32
2023-02-09T10:00:23.517Z,56.25
2023-02-09T10:02:51.372Z,58.17
2023-02-09T10:05:25.201Z,59.80
2023-02-09T10:07:55.844Z,59.04
2023-02-09T10:10:57.428Z,58.59
2023-02-09T10:13:27.937Z,58.08
2023-02-09T10:15:58.436Z,56.87
2023-02-09T10:18:26.117Z,59.85
2023-02-09T10:20:57.227Z,62.23
2023-02-09T10:23:50.036Z,60.54
2023-02-09T10:26:31.344Z,58.74
2023-02-09T10:29:07.475Z,57.72
2023-02-09T10:31:48.768Z,60.72
2023-02-09T10:34:38.705Z,56.15
2023-02-09T10:37:36.165Z,58.04
2023-02-09T10:40:17.796Z,56.84
2023-02-09T10:43:00.774Z,60.65
2023-02-09T10:45:37.731Z,59.15
2023-02-09T10:48:14.112Z,56.05
2023-02-09T10:51:01.478Z,59.78
2023-02-09T10:53:42.117Z,65.36
2023-02-09T10:56:15.749Z,63.16
2023-02-09T10:58:51.049Z,63.05
2023-02-09T11:01:23.822Z,60.75
2023-02-09T11:04:06.354Z,62.29
2023-02-09T11:06:58.715Z,67.88
2023-02-09T11:09:34.362Z,66.97
2023-02-09T11:12:02.440Z,63.10
2023-02-09T11:14:30.494Z,65.21
2023-02-09T11:17:12.084Z,66.61
2023-02-09T11:19:39.669Z,65.80
2023-02-09T11:22:46.093Z,65.98
2023-02-09T11:25:28.176Z,66.37
2023-02-09T11:28:17.160Z,63.51
2023-02-09T11:31:17.086Z,62.82
2023-02-09T11:33:59.143Z,60.87
2023-02-09T11:36:36.036Z,61.76
2023-02-09T11:39:31.274Z,63.24
2023-02-09T11:42:29.808Z,66.11
2023-02-09T11:45:07.357Z,66.38
2023-02-09T11:47:52.225Z,66.20
2023-02-09T11:50:57.130Z,65.32
2023-02-09T11:53:54.368Z,66.79
2023-02-09T11:56:25.252Z,64.88
2023-02-09T11:59:14.761Z,65.67
2023-02-09T12:02:02.202Z,63.49
2023-02-09T12:04:33.328Z,62.64
2023-02-09T12:07:05.891Z,63.17
2023-02-09T12:09:46.570Z,66.73
2023-02-09T12:12:23.104Z,63.64
2023-02-09T12:15:08.820Z,65.31
2023-02-09T12:17:43.720Z,62.91
2023-02-09T12:20:45.128Z,60.69
2023-02-09T12:23:36.435Z,64.25
2023-02-09T12:26:16.288Z,66.48
2023-02-09T12:28:48.464Z,64.43
2023-02-09T12:31:25.820Z,69.50
2023-02-09T12:33:59.518Z,68.63
2023-02-09T12:36:35.262Z,70.40
2023-02-09T12:39:06.023Z,69.47
2023-02-09T12:41:41.110Z,71.61
2023-02-09T12:44:11.894Z,68.89
2023-02-09T12:46:48.175Z,69.26
2023-02-09T12:49:16.071Z,69.17
2023-02-09T12:51:58.501Z,70.88
2023-02-09T12:54:40.216Z,73.17
2023-02-09T12:57:17.188Z,73.09
2023-02-09T12:59:51.297Z,74.76
2023-02-09T13:02:50.939Z,73.34
2023-02-09T13:05:26.488Z,70.51
2023-02-09T13:08:02.968Z,69.17
2023-02-09T13:10:44.841Z,72.83
2023-02-09T13:13:12.508Z,70.20
2023-02-09T13:16:10.138Z,68.35
2023-02-09T13:18:57.983Z,66.38
2023-02-09T13:21:53.506Z,63.81
2023-02-09T13:24:34.162Z,62.60
2023-02-09T13:27:02.181Z,62.83
2023-02-09T13:29:33.802Z,65.12
2023-02-09T13:32:16.882Z,63.13
2023-02-09T13:34:52.806Z,62.03
2023-02-09T13:37:39.509Z,63.62
2023-02-09T13:40:27.657Z,66.86
2023-02-09T13:43:04.363Z,67.23
2023-02-09T13:45:32.151Z,63.17
2023-02-09T13:48:00.931Z,64.67
2023-02-09T13:50:29.624Z,65.06
2023-02-09T13:53:11.016Z,64.08
2023-02-09T13:55:45.769Z,65.37
2023-02-09T13:58:26.349Z,66.18
2023-02-09T14:00:58.969Z,69.40
2023-02-09T14:03:58.876Z,68.96
2023-02-09T14:06:55.404Z,68.88
2023-02-09T14:09:43.824Z,67.67
2023-02-09T14:12:56.025Z,64.89
2023-02-09T14:15:45.083Z,61.39
2023-02-09T14:18:51.031Z,62.19
2023-02-09T14:21:38.255Z,63.30
2023-02-09T14:24:15.120Z,62.50
2023-02-09T14:26:54.199Z,63.32
2023-02-09T14:29:23.877Z,62.49
2023-02-09T14:32:27.408Z,66.31
2023-02-09T14:35:00.125Z,64.69
2023-02-09T14:37:30.095Z,68.71
2023-02-09T14:40:01.649Z,66.07
2023-02-09T14:42:33.250Z,64.97
2023-02-09T14:45:22.244Z,66.22
2023-02-09T14:47:49.760Z,65.60
2023-02-09T14:50:20.886Z,66.17
2023-02-09T14:52:52.292Z,66.34
2023-02-09T14:55:25.277Z,66.19
2023-02-09T14:57:52.980Z,66.01
2023-02-09T15:00:26.092Z,65.36
2023-02-09T15:02:54.715Z,65.63
2023-02-09T15:05:24.265Z,64.34
2023-02-09T15:07:59.602Z,65.09
2023-02-09T15:10:35.314Z,68.51
2023-02-09T15:13:04.542Z,69.59
2023-02-09T15:15:33.658Z,67.69
2023-02-09T15:18:02.006Z,67.48
2023-02-09T15:20:31.697Z,72.80
2023-02-09T15:23:01.058Z,72.26
2023-02-09T15:25:29.828Z,74.43
2023-02-09T15:27:59.969Z,72.00
2023-02-09T15:30:33.416Z,72.63
2023-02-09T15:33:06.217Z,74.31
2023-02-09T15:35:36.727Z,73.14
2023-02-09T15:38:04.488Z,71.03
2023-02-09T15:41:11.209Z,67.98
2023-02-09T15:43:57.191Z,74.17
2023-02-09T15:46:43.296Z,70.30
2023-02-09T15:49:11.166Z,72.68
2023-02-09T15:51:40.191Z,75.99
2023-02-09T15:54:20.344Z,72.39
2023-02-09T15:56:48.419Z,70.66
2023-02-09T15:59:21.681Z,68.52
2023-02-09T16:01:50.514Z,68.63
2023-02-09T16:04:18.803Z,70.81
2023-02-09T16:06:50.005Z,70.51
2023-02-09T16:09:28.192Z,69.03
2023-02-09T16:11:56.161Z,67.75
2023-02-09T16:14:26.607Z,68.84
2023-02-09T16:16:54.364Z,68.83
2023-02-09T16:19:22.063Z,70.19
2023-02-09T16:21:53.331Z,67.93
2023-02-09T16:24:41.490Z,70.39
2023-02-09T16:27:28.965Z,65.45
2023-02-09T16:29:58.259Z,67.16
2023-02-09T16:32:28.855Z,71.69
2023-02-09T16:35:07.432Z,73.62
2023-02-09T16:37:44.302Z,71.74
2023-02-09T16:40:17.814Z,69.06
2023-02-09T16:42:47.203Z,69.38
2023-02-09T16:45:17.864Z,67.55
2023-02-09T16:47:52.081Z,67.68
2023-02-09T16:50:47.248Z,67.79
2023-02-09T16:53:18.037Z,67.58
2023-02-09T16:55:49.121Z,67.56
2023-02-09T16:58:17.418Z,65.19
2023-02-09T17:00:45.676Z,67.32
2023-02-09T17:03:17.836Z,63.92
2023-02-09T17:05:49.116Z,64.55
2023-02-09T17:08:26.916Z,66.91
2023-02-09T17:10:56.493Z,65.49
2023-02-09T17:13:24.364Z,64.92
2023-02-09T17:16:00.009Z,67.89
2023-02-09T17:18:34.689Z,64.58
2023-02-09T17:21:13.764Z,65.98
2023-02-09T17:23:43.022Z,65.31
2023-02-09T17:26:11.937Z,65.91
2023-02-09T17:28:40.880Z,65.52
2023-02-09T17:31:27.390Z,65.29
2023-02-09T17:33:58.100Z,64.26
2023-02-09T17:36:28.656Z,65.66
2023-02-09T17:38:58.648Z,65.66
2023-02-09T17:41:34.388Z,65.30
2023-02-09T17:44:39.141Z,67.60
2023-02-09T17:47:03.725Z,66.94
2023-02-09T17:49:31.308Z,67.58
2023-02-09T17:51:58.838Z,64.56
2023-02-09T17:54:28.110Z,66.30
2023-02-09T17:56:55.717Z,65.97
2023-02-09T17:59:25.036Z,68.68
2023-02-09T18:01:55.526Z,68.78
2023-02-09T18:04:28.942Z,68.47
2023-02-09T18:06:58.852Z,67.17
2023-02-09T18:09:26.583Z,67.23
2023-02-09T18:11:59.633Z,65.34
2023-02-09T18:14:31.181Z,64.44
2023-02-09T18:16:59.019Z,64.62
2023-02-09T18:19:27.017Z,63.00
2023-02-09T18:21:59.803Z,63.63
2023-02-09T18:24:31.003Z,68.51
2023-02-09T18:26:59.044Z,64.88
2023-02-09T18:29:29.706Z,68.00
2023-02-09T18:32:02.290Z,67.33
2023-02-09T18:34:30.714Z,67.16
2023-02-09T18:36:58.524Z,66.24
2023-02-09T18:39:26.098Z,64.53
2023-02-09T18:41:56.565Z,66.33
2023-02-09T18:44:29.414Z,65.53
2023-02-09T18:47:00.731Z,64.99
2023-02-09T18:49:29.214Z,63.64
2023-02-09T18:51:57.334Z,63.03
2023-02-09T18:54:26.137Z,62.98
2023-02-09T18:56:54.880Z,61.70
2023-02-09T18:59:22.471Z,60.41
2023-02-09T19:01:51.019Z,60.03
2023-02-09T19:04:19.015Z,58.93
2023-02-09T19:06:46.773Z,60.09
2023-02-09T19:09:14.316Z,59.03
2023-02-09T19:11:41.920Z,59.59
2023-02-09T19:14:27.781Z,59.04
2023-02-09T19:16:55.382Z,58.90
2023-02-09T19:19:22.990Z,59.07
2023-02-09T19:21:53.146Z,60.09
2023-02-09T19:24:20.898Z,58.50
2023-02-09T19:26:48.537Z,56.09
2023-02-09T19:29:16.936Z,56.33
2023-02-09T19:31:44.434Z,56.78
2023-02-09T19:34:12.030Z,56.79
2023-02-09T19:36:39.527Z,56.89
2023-02-09T19:39:07.093Z,55.69
2023-02-09T19:41:34.688Z,55.77
2023-02-09T19:44:02.245Z,56.73
2023-02-09T19:46:29.816Z,56.82
2023-02-09T19:48:57.891Z,58.10
2023-02-09T19:51:25.607Z,58.13
2023-02-09T19:53:53.117Z,56.67
2023-02-09T19:56:23.947Z,56.96
2023-02-09T19:58:52.560Z,57.76
2023-02-09T20:01:21.151Z,55.39
2023-02-09T20:03:49.846Z,56.16
2023-02-09T20:06:17.422Z,57.11
2023-02-09T20:08:45.092Z,55.71
2023-02-09T20:11:18.191Z,56.00
2023-02-09T20:13:48.943Z,55.64
2023-02-09T20:16:25.469Z,57.14
2023-02-09T20:18:54.071Z,56.50
2023-02-09T20:21:23.638Z,57.40
2023-02-09T20:23:55.626Z,58.62
2023-02-09T20:26:30.037Z,56.27
2023-02-09T20:28:58.283Z,58.03
2023-02-09T20:31:28.534Z,59.52
2023-02-09T20:33:56.670Z,58.48
2023-02-09T20:36:25.625Z,60.41
2023-02-09T20:38:53.421Z,61.15
2023-02-09T20:41:20.974Z,62.45
2023-02-09T20:44:06.812Z,67.05
2023-02-09T20:46:53.098Z,68.34
2023-02-09T20:49:20.702Z,65.56
2023-02-09T20:51:48.184Z,67.61
2023-02-09T20:54:16.227Z,67.50
2023-02-09T20:56:43.936Z,65.82
2023-02-09T20:59:12.093Z,65.06
2023-02-09T21:01:40.648Z,68.05
2023-02-09T21:04:09.281Z,70.26
2023-02-09T21:06:37.929Z,71.87
2023-02-09T21:09:11.022Z,70.57
2023-02-09T21:11:38.768Z,65.20
2023-02-09T21:14:06.270Z,66.38
2023-02-09T21:16:33.836Z,67.36
2023-02-09T21:19:01.566Z,69.64
2023-02-09T21:21:29.762Z,70.92
2023-02-09T21:23:57.385Z,67.38
2023-02-09T21:26:25.149Z,67.74
2023-02-09T21:28:57.695Z,64.59
2023-02-09T21:31:28.048Z,62.96
2023-02-09T21:33:55.758Z,63.84
2023-02-09T21:36:23.293Z,65.59
2023-02-09T21:38:50.959Z,68.55
2023-02-09T21:41:39.836Z,70.86
2023-02-09T21:44:10.014Z,69.54
2023-02-09T21:46:37.553Z,67.19
2023-02-09T21:49:05.435Z,72.44
2023-02-09T21:51:32.924Z,71.77
2023-02-09T21:54:00.476Z,72.95
2023-02-09T21:56:28.049Z,70.54
2023-02-09T21:58:55.823Z,69.91
2023-02-09T22:01:23.363Z,70.33
2023-02-09T22:03:57.408Z,71.47
2023-02-09T22:06:25.993Z,76.79
2023-02-09T22:08:53.889Z,76.84
2023-02-09T22:11:21.486Z,76.95
2023-02-09T22:13:48.989Z,73.72
2023-02-09T22:16:20.014Z,73.77
2023-02-09T22:18:47.628Z,74.75
2023-02-09T22:21:15.257Z,73.79
2023-02-09T22:23:42.940Z,75.83
2023-02-09T22:26:10.908Z,77.03
2023-02-09T22:28:38.401Z,79.75
2023-02-09T22:31:14.600Z,80.95
2023-02-09T22:33:42.288Z,75.52
2023-02-09T22:36:17.966Z,78.29
2023-02-09T22:38:46.046Z,80.29
2023-02-09T22:41:22.364Z,78.26
2023-02-09T22:44:05.758Z,78.49
2023-02-09T22:46:36.407Z,80.28
2023-02-09T22:49:07.702Z,80.99
2023-02-09T22:51:36.686Z,77.57
2023-02-09T22:54:05.459Z,79.58
2023-02-09T22:56:33.394Z,74.78
2023-02-09T22:59:02.157Z,74.46
2023-02-09T23:01:30.378Z,74.70
2023-02-09T23:03:58.617Z,73.82
2023-02-09T23:06:28.750Z,72.45
2023-02-09T23:09:01.950Z,78.28
2023-02-09T23:11:31.074Z,79.17
2023-02-09T23:14:08.941Z,77.73
2023-02-09T23:16:38.257Z,74.93
2023-02-09T23:19:08.337Z,74.28
2023-02-09T23:21:39.072Z,71.92
2023-02-09T23:24:07.620Z,72.96
2023-02-09T23:26:35.930Z,70.25
2023-02-09T23:29:06.960Z,71.08
2023-02-09T23:31:35.401Z,71.94
2023-02-09T23:34:02.968Z,71.02
2023-02-09T23:36:32.266Z,69.02
2023-02-09T23:39:05.844Z,65.68
2023-02-09T23:41:34.085Z,66.70
2023-02-09T23:44:02.088Z,66.79
2023-02-09T23:46:29.834Z,66.44
2023-02-09T23:48:58.389Z,64.80
2023-02-09T23:51:29.915Z,65.59
2023-02-09T23:53:59.924Z,69.91
2023-02-09T23:56:30.940Z,70.43
2023-02-09T23:58:59.415Z,71.48
